Time;durP1;ratioP1;P1;durP2;ratioP2;P2;SDS_P1;SDS_P2;PMS_P1;PMS_P2;Temp;Humidity;BMP_temperature;BMP_pressure;BME280_temperature;BME280_humidity;BME280_pressure;Samples;Min_cycle;Max_cycle;Signal;HPM_P1;HPM_P2
2021/09/06 00:00:12;;;;;;;6.22;2.90;;;;;15.70;100678.00;;;;5069370;28;20052;-77
2021/09/06 00:02:42;;;;;;;;;;;;;15.70;100705.00;;;;5068962;28;20057;-76
2021/09/06 00:05:12;;;;;;;8.32;3.50;;;;;15.70;100682.00;;;;5069115;28;20021;-79
2021/09/06 00:07:45;;;;;;;11.20;4.30;;;;;15.70;100676.00;;;;5069478;28;20052;-79
2021/09/06 00:10:37;;;;;;;15.82;4.05;;;;;15.70;100709.00;;;;5061163;28;20047;-77
2021/09/06 00:13:08;;;;;;;6.28;3.58;;;;;15.60;100683.00;;;;5048658;28;20051;-80
2021/09/06 00:15:39;;;;;;;9.83;4.60;;;;;15.60;100694.00;;;;5049204;28;20047;-77
2021/09/06 00:18:08;;;;;;;17.58;4.53;;;;;15.60;100705.00;;;;5049335;28;20323;-79
2021/09/06 00:20:39;;;;;;;6.07;3.38;;;;;15.50;100711.00;;;;5048558;28;20055;-77
2021/09/06 00:23:10;;;;;;;9.88;4.53;;;;;15.50;100696.00;;;;5049317;28;20044;-79
2021/09/06 00:25:40;;;;;;;9.45;3.15;;;;;15.40;100688.00;;;;5048509;28;20059;-79
2021/09/06 00:28:09;;;;;;;7.38;2.95;;;;;15.30;100695.00;;;;5048318;28;20794;-77
2021/09/06 00:30:39;;;;;;;8.90;2.80;;;;;15.20;100691.00;;;;5048550;28;20083;-80
2021/09/06 00:33:08;;;;;;;9.02;2.83;;;;;15.20;100694.00;;;;5048871;28;20061;-72
2021/09/06 00:35:40;;;;;;;8.23;3.25;;;;;15.10;100711.00;;;;5049642;28;20053;-80
2021/09/06 00:38:09;;;;;;;10.18;2.83;;;;;15.10;100728.00;;;;5048541;28;20122;-77
2021/09/06 00:40:38;;;;;;;6.43;3.13;;;;;15.00;100698.00;;;;5048216;28;20057;-78
2021/09/06 00:43:07;;;;;;;12.73;3.42;;;;;15.10;100713.00;;;;5049095;28;20056;-77
2021/09/06 00:45:37;;;;;;;11.45;3.20;;;;;15.10;100716.00;;;;5048287;28;20055;-78
2021/09/06 00:48:08;;;;;;;4.28;2.65;;;;;15.10;100715.00;;;;5048833;28;20119;-77
2021/09/06 00:50:37;;;;;;;8.33;3.50;;;;;15.10;100732.00;;;;5047997;28;20055;-76
2021/09/06 00:53:06;;;;;;;4.10;2.80;;;;;15.10;100723.00;;;;5049038;28;20291;-80
2021/09/06 00:55:36;;;;;;;10.10;3.78;;;;;15.10;100721.00;;;;5047066;28;20500;-79
2021/09/06 00:58:06;;;;;;;5.90;2.90;;;;;15.10;100731.00;;;;5052128;28;20554;-80
2021/09/06 01:00:35;;;;;;;4.82;3.30;;;;;15.10;100742.00;;;;5057091;28;20044;-77
2021/09/06 01:03:04;;;;;;;4.00;3.10;;;;;15.10;100740.00;;;;5055673;28;20092;-76
2021/09/06 01:05:33;;;;;;;10.35;3.63;;;;;15.00;100729.00;;;;5051776;28;20045;-79
2021/09/06 01:08:03;;;;;;;5.85;3.00;;;;;15.00;100732.00;;;;5057540;28;20044;-81
2021/09/06 01:10:32;;;;;;;9.13;3.47;;;;;15.00;100732.00;;;;5057014;28;20028;-78
2021/09/06 01:13:01;;;;;;;5.95;2.90;;;;;15.00;100732.00;;;;5057135;28;20508;-78
2021/09/06 01:15:30;;;;;;;7.25;2.78;;;;;15.00;100729.00;;;;5064277;28;20044;-78
2021/09/06 01:17:59;;;;;;;7.43;3.58;;;;;15.00;100742.00;;;;5053153;28;20423;-80
2021/09/06 01:20:29;;;;;;;12.57;3.30;;;;;15.00;100745.00;;;;5047857;28;20061;-79
2021/09/06 01:22:58;;;;;;;10.15;4.07;;;;;15.00;100746.00;;;;5047887;28;20542;-80
2021/09/06 01:25:27;;;;;;;16.30;4.55;;;;;15.00;100733.00;;;;5030599;28;20049;-77
2021/09/06 01:27:56;;;;;;;10.15;4.20;;;;;14.90;100731.00;;;;5048279;28;20049;-77
2021/09/06 01:30:24;;;;;;;11.55;4.03;;;;;14.80;100735.00;;;;5047154;28;20045;-77
2021/09/06 01:32:54;;;;;;;10.45;4.03;;;;;14.80;100762.00;;;;5047901;28;20554;-77
2021/09/06 01:35:23;;;;;;;14.50;4.53;;;;;14.70;100754.00;;;;5047052;28;20522;-77
2021/09/06 01:37:52;;;;;;;5.95;3.78;;;;;14.60;100728.00;;;;5047679;28;20495;-76
2021/09/06 01:40:22;;;;;;;9.75;3.80;;;;;14.50;100736.00;;;;5047418;28;20055;-79
2021/09/06 01:42:52;;;;;;;11.60;4.00;;;;;14.30;100749.00;;;;5047552;28;20048;-78
2021/09/06 01:45:21;;;;;;;7.82;3.55;;;;;14.20;100740.00;;;;5047645;28;20051;-78
2021/09/06 01:47:50;;;;;;;7.40;3.03;;;;;14.20;100721.00;;;;5057845;28;20052;-79
2021/09/06 01:50:19;;;;;;;12.15;3.00;;;;;14.10;100706.00;;;;5055877;28;20048;-79
2021/09/06 01:52:47;;;;;;;13.77;3.30;;;;;14.10;100741.00;;;;5055792;28;20143;-80
2021/09/06 01:55:17;;;;;;;9.57;3.35;;;;;14.00;100736.00;;;;5056418;28;20090;-79
2021/09/06 01:57:45;;;;;;;6.03;3.33;;;;;14.00;100718.00;;;;5056266;28;20057;-77
2021/09/06 02:00:15;;;;;;;6.45;3.38;;;;;14.00;100738.00;;;;5054737;28;20045;-77
2021/09/06 02:02:43;;;;;;;8.15;3.72;;;;;13.90;100735.00;;;;5046531;28;20088;-79
2021/09/06 02:05:13;;;;;;;8.85;3.60;;;;;13.90;100716.00;;;;5047327;28;20061;-81
2021/09/06 02:07:42;;;;;;;10.77;4.25;;;;;13.90;100741.00;;;;5046310;28;20076;-79
2021/09/06 02:10:11;;;;;;;5.85;3.50;;;;;13.90;100722.00;;;;5047696;28;20056;-78
2021/09/06 02:12:39;;;;;;;6.65;4.22;;;;;14.00;100717.00;;;;5046948;28;20463;-79
2021/09/06 02:15:09;;;;;;;8.70;4.03;;;;;14.00;100727.00;;;;5046584;28;20055;-79
2021/09/06 02:17:38;;;;;;;9.40;3.95;;;;;14.00;100732.00;;;;5046543;28;20132;-78
2021/09/06 02:20:07;;;;;;;6.20;3.95;;;;;14.00;100714.00;;;;5045288;28;20111;-79
2021/09/06 02:22:37;;;;;;;8.65;3.30;;;;;13.90;100756.00;;;;5047236;28;20045;-80
2021/09/06 02:25:08;;;;;;;8.77;3.47;;;;;13.90;100729.00;;;;5045769;28;20508;-79
2021/09/06 02:27:37;;;;;;;11.27;3.78;;;;;13.80;100727.00;;;;5046344;28;20463;-78
2021/09/06 02:30:07;;;;;;;6.53;3.30;;;;;13.70;100729.00;;;;5047179;28;20041;-77
2021/09/06 02:32:36;;;;;;;11.45;3.40;;;;;13.70;100748.00;;;;5045707;28;20049;-77
2021/09/06 02:35:06;;;;;;;5.15;3.53;;;;;13.70;100723.00;;;;5046725;28;20131;-80
2021/09/06 02:37:36;;;;;;;8.80;3.60;;;;;13.60;100720.00;;;;5046753;28;20147;-78
2021/09/06 02:40:05;;;;;;;8.68;3.13;;;;;13.50;100726.00;;;;5046516;28;20060;-80
2021/09/06 02:42:34;;;;;;;6.05;3.47;;;;;13.50;100738.00;;;;5046505;28;20055;-79
2021/09/06 02:45:03;;;;;;;12.85;3.38;;;;;13.50;100714.00;;;;5046092;28;20496;-78
2021/09/06 02:47:33;;;;;;;3.65;3.05;;;;;13.50;100736.00;;;;5046451;28;20056;-80
2021/09/06 02:50:03;;;;;;;15.38;3.00;;;;;13.40;100734.00;;;;5046333;28;20457;-78
2021/09/06 02:52:33;;;;;;;10.32;3.13;;;;;13.40;100747.00;;;;5046474;28;20053;-79
2021/09/06 02:55:02;;;;;;;6.10;3.22;;;;;13.30;100748.00;;;;5046659;28;20056;-77
2021/09/06 02:57:32;;;;;;;12.93;3.03;;;;;13.30;100728.00;;;;5046447;28;20118;-79
2021/09/06 03:00:01;;;;;;;9.90;2.83;;;;;13.30;100731.00;;;;5046321;28;20526;-78
2021/09/06 03:02:30;;;;;;;4.22;2.90;;;;;13.30;100728.00;;;;5046008;28;20049;-78
2021/09/06 03:04:59;;;;;;;6.80;2.75;;;;;13.40;100734.00;;;;5046287;28;20570;-81
2021/09/06 03:07:29;;;;;;;6.97;2.60;;;;;13.30;100725.00;;;;5047156;28;20053;-78
2021/09/06 03:09:57;;;;;;;6.65;2.28;;;;;13.30;100714.00;;;;5046878;28;20053;-78
2021/09/06 03:12:26;;;;;;;6.80;3.08;;;;;13.30;100752.00;;;;5046579;28;20052;-77
2021/09/06 03:14:55;;;;;;;7.20;3.00;;;;;13.40;100734.00;;;;5045552;28;20052;-77
2021/09/06 03:17:25;;;;;;;12.75;3.30;;;;;13.50;100754.00;;;;5047240;28;20045;-78
2021/09/06 03:19:54;;;;;;;7.03;3.13;;;;;13.50;100740.00;;;;5046282;28;20049;-78
2021/09/06 03:22:23;;;;;;;8.60;2.88;;;;;13.60;100748.00;;;;5046406;28;20052;-78
2021/09/06 03:24:52;;;;;;;8.13;3.60;;;;;13.60;100741.00;;;;5045928;28;20535;-78
2021/09/06 03:27:21;;;;;;;9.50;2.97;;;;;13.70;100729.00;;;;5045864;28;20049;-77
2021/09/06 03:29:50;;;;;;;9.60;3.25;;;;;13.70;100721.00;;;;5046077;28;21127;-80
2021/09/06 03:32:20;;;;;;;6.70;3.38;;;;;13.80;100725.00;;;;5045876;28;20045;-79
2021/09/06 03:34:48;;;;;;;9.13;3.20;;;;;13.80;100742.00;;;;5044986;28;20407;-81
2021/09/06 03:37:17;;;;;;;8.43;3.55;;;;;13.90;100746.00;;;;5045477;28;20045;-80
2021/09/06 03:39:47;;;;;;;11.52;3.13;;;;;13.90;100758.00;;;;5046186;28;20076;-75
2021/09/06 03:42:17;;;;;;;7.00;3.20;;;;;13.90;100756.00;;;;5045885;28;20409;-77
2021/09/06 03:44:46;;;;;;;12.88;3.58;;;;;13.90;100759.00;;;;5045878;28;20427;-77
2021/09/06 03:47:15;;;;;;;5.45;3.50;;;;;13.90;100745.00;;;;5046529;28;20059;-76
2021/09/06 03:49:44;;;;;;;8.93;3.00;;;;;13.90;100765.00;;;;5045881;28;20045;-76
2021/09/06 03:52:13;;;;;;;11.52;2.75;;;;;13.90;100743.00;;;;5046232;28;20578;-77
2021/09/06 03:54:42;;;;;;;7.93;3.40;;;;;13.80;100755.00;;;;5045492;28;20401;-77
2021/09/06 03:57:11;;;;;;;6.00;3.22;;;;;13.80;100736.00;;;;5045919;28;20751;-78
2021/09/06 03:59:40;;;;;;;7.97;3.22;;;;;13.80;100733.00;;;;5045685;28;20061;-76
2021/09/06 04:02:09;;;;;;;5.95;3.63;;;;;13.70;100732.00;;;;5045347;28;20057;-76
2021/09/06 04:04:38;;;;;;;6.80;3.55;;;;;13.70;100751.00;;;;5045577;28;20076;-77
2021/09/06 04:07:07;;;;;;;10.90;3.63;;;;;13.70;100730.00;;;;5045771;28;20072;-78
2021/09/06 04:09:37;;;;;;;5.95;3.78;;;;;13.70;100738.00;;;;5045585;28;20049;-77
2021/09/06 04:12:06;;;;;;;7.70;3.22;;;;;13.60;100748.00;;;;5045566;28;20048;-77
2021/09/06 04:14:35;;;;;;;8.63;2.95;;;;;13.60;100735.00;;;;5045564;28;20047;-77
2021/09/06 04:17:04;;;;;;;7.88;2.95;;;;;13.60;100746.00;;;;5047346;28;20045;-76
2021/09/06 04:19:33;;;;;;;10.60;2.92;;;;;13.60;100741.00;;;;5048901;28;20120;-77
2021/09/06 04:22:03;;;;;;;6.30;2.67;;;;;13.60;100699.00;;;;5048581;28;20036;-78
2021/09/06 04:24:32;;;;;;;9.65;2.83;;;;;13.60;100746.00;;;;5048857;28;20049;-78
2021/09/06 04:27:01;;;;;;;6.32;3.15;;;;;13.70;100762.00;;;;5049463;28;20055;-77
2021/09/06 04:29:30;;;;;;;9.43;3.13;;;;;13.80;100752.00;;;;5048164;28;20052;-77
2021/09/06 04:31:59;;;;;;;7.35;2.70;;;;;13.80;100758.00;;;;5048712;28;20048;-78
2021/09/06 04:34:28;;;;;;;6.43;2.80;;;;;13.90;100755.00;;;;5048910;28;20048;-79
2021/09/06 04:36:57;;;;;;;14.07;3.38;;;;;13.90;100740.00;;;;5049705;28;20041;-77
2021/09/06 04:39:25;;;;;;;8.95;3.53;;;;;14.00;100751.00;;;;5048757;28;20049;-76
2021/09/06 04:41:54;;;;;;;7.75;3.15;;;;;14.00;100746.00;;;;5048226;28;20045;-78
2021/09/06 04:44:23;;;;;;;12.13;3.40;;;;;14.10;100751.00;;;;5048523;28;20049;-77
2021/09/06 04:46:52;;;;;;;10.13;3.00;;;;;14.10;100739.00;;;;5049036;28;20059;-78
2021/09/06 04:49:21;;;;;;;10.35;3.60;;;;;14.10;100738.00;;;;5048527;28;20059;-74
2021/09/06 04:51:50;;;;;;;6.95;3.25;;;;;14.10;100754.00;;;;5048591;28;20063;-75
2021/09/06 04:54:19;;;;;;;6.85;2.97;;;;;14.10;100748.00;;;;5047889;28;20051;-79
2021/09/06 04:56:48;;;;;;;7.45;2.90;;;;;14.20;100760.00;;;;5048337;28;20053;-79
2021/09/06 04:59:21;;;;;;;9.45;2.97;;;;;14.20;100758.00;;;;5048492;28;20044;-77
2021/09/06 05:01:50;;;;;;;9.55;2.97;;;;;14.20;100763.00;;;;5046735;28;20067;-78
2021/09/06 05:04:19;;;;;;;10.30;3.15;;;;;14.30;100746.00;;;;5048440;28;20601;-77
2021/09/06 05:06:48;;;;;;;6.00;3.00;;;;;14.30;100730.00;;;;5047345;28;20443;-78
2021/09/06 05:09:17;;;;;;;9.18;2.88;;;;;14.30;100732.00;;;;5048205;28;20053;-77
2021/09/06 05:11:46;;;;;;;11.05;3.13;;;;;14.30;100755.00;;;;5048373;28;20057;-79
2021/09/06 05:14:15;;;;;;;9.15;2.80;;;;;14.40;100742.00;;;;5047886;28;20063;-76
2021/09/06 05:16:44;;;;;;;10.88;2.97;;;;;14.40;100753.00;;;;5047855;28;20049;-76
2021/09/06 05:19:13;;;;;;;8.73;2.45;;;;;14.40;100736.00;;;;5047623;28;20420;-79
2021/09/06 05:21:41;;;;;;;4.80;2.47;;;;;14.50;100751.00;;;;5047375;28;20053;-77
2021/09/06 05:24:10;;;;;;;5.50;2.88;;;;;14.50;100759.00;;;;5048216;28;20103;-78
2021/09/06 05:26:39;;;;;;;10.45;2.88;;;;;14.50;100738.00;;;;5047486;28;20057;-78
2021/09/06 05:29:08;;;;;;;5.03;2.88;;;;;14.60;100750.00;;;;5046646;28;20068;-79
2021/09/06 05:31:37;;;;;;;11.30;3.00;;;;;14.50;100754.00;;;;5047897;28;20135;-79
2021/09/06 05:34:06;;;;;;;6.40;3.03;;;;;14.60;100754.00;;;;5047572;28;20053;-77
2021/09/06 05:36:35;;;;;;;14.40;2.60;;;;;14.60;100749.00;;;;5047998;28;20060;-76
2021/09/06 05:39:04;;;;;;;9.43;3.15;;;;;14.60;100737.00;;;;5047368;28;20049;-77
2021/09/06 05:41:33;;;;;;;6.90;3.03;;;;;14.60;100766.00;;;;5047824;28;20048;-76
2021/09/06 05:44:05;;;;;;;5.80;3.53;;;;;14.70;100727.00;;;;5047405;28;20059;-76
2021/09/06 05:46:35;;;;;;;13.43;2.92;;;;;14.70;100743.00;;;;5047558;28;20051;-77
2021/09/06 05:49:04;;;;;;;10.95;3.38;;;;;14.70;100754.00;;;;5047491;28;20049;-75
2021/09/06 05:51:32;;;;;;;4.70;2.78;;;;;14.70;100733.00;;;;5047214;28;20045;-78
2021/09/06 05:54:02;;;;;;;8.90;2.80;;;;;14.70;100759.00;;;;5047251;28;20045;-76
2021/09/06 05:56:31;;;;;;;7.05;2.80;;;;;14.70;100745.00;;;;5046085;28;20053;-78
2021/09/06 05:59:00;;;;;;;11.50;3.13;;;;;14.70;100740.00;;;;5047535;28;20411;-79
2021/09/06 06:01:29;;;;;;;6.60;3.10;;;;;14.80;100740.00;;;;5045401;28;21041;-77
2021/09/06 06:03:58;;;;;;;8.70;2.75;;;;;14.70;100758.00;;;;5047230;28;20507;-76
2021/09/06 06:06:28;;;;;;;6.82;2.85;;;;;14.80;100759.00;;;;5046912;28;20095;-76
2021/09/06 06:08:57;;;;;;;4.22;2.97;;;;;14.80;100745.00;;;;5045616;28;20057;-77
2021/09/06 06:11:26;;;;;;;9.52;2.70;;;;;14.80;100743.00;;;;5046725;28;20053;-76
2021/09/06 06:13:55;;;;;;;4.32;2.83;;;;;14.80;100733.00;;;;5046952;28;20052;-78
2021/09/06 06:16:24;;;;;;;5.45;2.47;;;;;14.80;100738.00;;;;5047253;28;20135;-76
2021/09/06 06:18:53;;;;;;;7.53;2.47;;;;;14.80;100762.00;;;;5046766;28;20143;-77
2021/09/06 06:21:22;;;;;;;4.88;2.40;;;;;14.80;100752.00;;;;5045482;28;20068;-79
2021/09/06 06:23:51;;;;;;;4.97;2.58;;;;;14.80;100729.00;;;;5046810;28;20051;-77
2021/09/06 06:26:20;;;;;;;4.32;3.00;;;;;14.80;100746.00;;;;5046773;28;20049;-76
2021/09/06 06:28:49;;;;;;;8.32;2.78;;;;;14.80;100718.00;;;;5046614;28;20059;-79
2021/09/06 06:31:18;;;;;;;9.10;2.90;;;;;14.80;100743.00;;;;5047013;28;20060;-77
2021/09/06 06:33:47;;;;;;;9.93;3.10;;;;;14.70;100744.00;;;;5045793;28;20092;-79
2021/09/06 06:36:16;;;;;;;8.25;2.83;;;;;14.70;100728.00;;;;5046665;28;20063;-79
2021/09/06 06:38:52;;;;;;;10.82;3.00;;;;;14.60;100740.00;;;;5046004;28;20103;-79
2021/09/06 06:41:21;;;;;;;7.38;2.58;;;;;14.60;100721.00;;;;5046584;28;20059;-74
2021/09/06 06:43:50;;;;;;;6.90;2.70;;;;;14.50;100741.00;;;;5046168;28;20056;-77
2021/09/06 06:46:19;;;;;;;6.18;2.60;;;;;14.50;100723.00;;;;5046392;28;20052;-76
2021/09/06 06:48:47;;;;;;;7.30;3.10;;;;;14.60;100716.00;;;;5046780;28;20077;-77
2021/09/06 06:51:17;;;;;;;7.50;2.72;;;;;14.60;100727.00;;;;5046824;28;20052;-76
2021/09/06 06:53:47;;;;;;;5.95;2.55;;;;;14.60;100738.00;;;;5046918;28;20071;-77
2021/09/06 06:56:15;;;;;;;8.48;3.08;;;;;14.70;100732.00;;;;5046087;28;20041;-78
2021/09/06 06:58:44;;;;;;;14.95;3.30;;;;;14.70;100705.00;;;;5045923;28;20071;-75
2021/09/06 07:01:13;;;;;;;6.57;2.70;;;;;14.70;100707.00;;;;5046285;28;20049;-76
2021/09/06 07:03:42;;;;;;;5.15;2.63;;;;;14.70;100704.00;;;;5045754;28;20049;-79
2021/09/06 07:06:12;;;;;;;3.80;2.80;;;;;14.70;100705.00;;;;5046584;28;20053;-77
2021/09/06 07:08:41;;;;;;;9.75;2.80;;;;;14.70;100728.00;;;;5046986;28;20064;-78
2021/09/06 07:11:10;;;;;;;5.93;2.95;;;;;14.70;100708.00;;;;5046992;28;20428;-77
2021/09/06 07:13:39;;;;;;;5.90;2.97;;;;;14.80;100712.00;;;;5045953;28;20424;-77
2021/09/06 07:16:08;;;;;;;7.85;3.30;;;;;14.80;100723.00;;;;5046912;28;20059;-76
2021/09/06 07:18:36;;;;;;;6.40;3.22;;;;;14.80;100719.00;;;;5046563;28;20053;-76
2021/09/06 07:21:05;;;;;;;9.55;3.03;;;;;14.80;100698.00;;;;5046329;28;20048;-78
2021/09/06 07:23:34;;;;;;;6.55;3.22;;;;;14.80;100723.00;;;;5045874;28;20056;-77
2021/09/06 07:26:04;;;;;;;8.82;2.90;;;;;14.80;100720.00;;;;5045779;28;20048;-77
2021/09/06 07:28:33;;;;;;;6.85;3.15;;;;;14.80;100724.00;;;;5045376;28;20044;-76
2021/09/06 07:31:02;;;;;;;5.30;2.97;;;;;14.80;100718.00;;;;5046437;28;20056;-76
2021/09/06 07:33:31;;;;;;;3.00;2.60;;;;;14.80;100738.00;;;;5046183;28;20049;-77
2021/09/06 07:35:59;;;;;;;5.35;2.88;;;;;14.80;100705.00;;;;5045822;28;20130;-76
2021/09/06 07:38:28;;;;;;;7.88;2.92;;;;;14.80;100721.00;;;;5044701;28;20053;-77
2021/09/06 07:40:57;;;;;;;13.20;3.20;;;;;14.80;100740.00;;;;5045633;28;20065;-76
2021/09/06 07:43:26;;;;;;;11.27;3.00;;;;;14.90;100733.00;;;;5044306;28;20053;-77
2021/09/06 07:45:55;;;;;;;6.05;2.72;;;;;14.90;100737.00;;;;5045872;28;20472;-76
2021/09/06 07:48:24;;;;;;;8.73;3.10;;;;;14.90;100730.00;;;;5045565;28;20596;-76
2021/09/06 07:50:53;;;;;;;6.97;3.15;;;;;14.90;100736.00;;;;5045537;28;20088;-77
2021/09/06 07:53:23;;;;;;;8.82;3.00;;;;;14.90;100747.00;;;;5049713;28;20059;-76
2021/09/06 07:55:52;;;;;;;6.10;2.50;;;;;14.90;100755.00;;;;5049406;28;20048;-76
2021/09/06 07:58:21;;;;;;;8.43;3.33;;;;;14.90;100750.00;;;;5049787;28;20064;-77
2021/09/06 08:00:50;;;;;;;8.68;3.40;;;;;14.90;100745.00;;;;5049137;28;20056;-76
2021/09/06 08:03:19;;;;;;;7.85;3.03;;;;;14.90;100786.00;;;;5049530;28;20057;-75
2021/09/06 08:05:48;;;;;;;4.40;3.13;;;;;14.80;100762.00;;;;5049397;28;20051;-78
2021/09/06 08:08:18;;;;;;;14.27;3.15;;;;;14.80;100766.00;;;;5049169;28;20053;-76
2021/09/06 08:10:47;;;;;;;7.70;3.20;;;;;14.70;100782.00;;;;5049347;28;20045;-76
2021/09/06 08:13:19;;;;;;;7.80;3.50;;;;;14.60;100797.00;;;;5049085;28;20053;-76
2021/09/06 08:15:49;;;;;;;5.05;2.75;;;;;14.60;100789.00;;;;5049034;28;20404;-77
2021/09/06 08:18:18;;;;;;;7.07;2.97;;;;;14.50;100800.00;;;;5048826;28;20079;-76
2021/09/06 08:20:49;;;;;;;;;;;;;14.50;100808.00;;;;5049523;28;20049;-75
2021/09/06 08:23:18;;;;;;;6.45;3.03;;;;;14.50;100788.00;;;;5049236;28;19927;-75
2021/09/06 08:25:47;;;;;;;9.20;2.88;;;;;14.50;100797.00;;;;5049183;28;20048;-76
2021/09/06 08:28:16;;;;;;;6.50;3.47;;;;;14.50;100819.00;;;;5049250;28;20120;-77
2021/09/06 08:30:45;;;;;;;9.43;3.35;;;;;14.50;100796.00;;;;5048448;28;20053;-76
2021/09/06 08:33:18;;;;;;;9.05;3.42;;;;;14.40;100806.00;;;;5048558;28;20060;-78
2021/09/06 08:35:47;;;;;;;6.90;3.40;;;;;14.40;100805.00;;;;5048861;28;20064;-76
2021/09/06 08:38:18;;;;;;;7.90;3.20;;;;;14.30;100796.00;;;;5048732;28;20147;-77
2021/09/06 08:40:47;;;;;;;7.13;3.17;;;;;14.30;100818.00;;;;5048822;28;20870;-76
2021/09/06 08:43:16;;;;;;;10.95;2.97;;;;;14.20;100826.00;;;;5048807;28;20045;-76
2021/09/06 08:45:45;;;;;;;7.65;2.58;;;;;14.10;100822.00;;;;5049354;28;20056;-77
2021/09/06 08:48:14;;;;;;;7.30;2.60;;;;;14.10;100825.00;;;;5048840;28;20130;-77
2021/09/06 08:50:43;;;;;;;12.02;2.72;;;;;14.00;100820.00;;;;5048664;28;20440;-77
2021/09/06 08:53:12;;;;;;;7.43;2.70;;;;;14.00;100817.00;;;;5048749;28;20091;-76
2021/09/06 08:55:41;;;;;;;10.52;3.10;;;;;13.90;100839.00;;;;5048583;28;20052;-76
2021/09/06 08:58:30;;;;;;;6.25;2.80;;;;;13.70;100815.00;;;;5048455;28;20053;-77
2021/09/06 09:00:59;;;;;;;10.27;2.58;;;;;13.60;100822.00;;;;5047868;28;20995;-75
2021/09/06 09:03:28;;;;;;;13.63;3.40;;;;;13.50;100821.00;;;;5048343;28;20059;-76
2021/09/06 09:06:01;;;;;;;9.18;3.20;;;;;13.40;100810.00;;;;5048486;28;20049;-76
2021/09/06 09:08:31;;;;;;;8.07;3.50;;;;;13.30;100819.00;;;;5048027;28;20049;-77
2021/09/06 09:11:03;;;;;;;8.10;3.40;;;;;13.20;100816.00;;;;5047790;28;20056;-76
2021/09/06 09:13:35;;;;;;;10.50;3.45;;;;;13.10;100838.00;;;;5047917;28;20051;-77
2021/09/06 09:16:06;;;;;;;18.08;3.75;;;;;13.00;100818.00;;;;5047880;28;20052;-76
2021/09/06 09:18:36;;;;;;;5.78;3.40;;;;;13.00;100830.00;;;;5048084;28;20053;-75
2021/09/06 09:21:08;;;;;;;12.13;3.60;;;;;12.90;100832.00;;;;5048511;28;20059;-74
2021/09/06 09:23:48;;;;;;;11.30;3.50;;;;;12.90;100822.00;;;;5047763;28;20057;-77
2021/09/06 09:26:17;;;;;;;25.38;4.88;;;;;12.90;100848.00;;;;5048365;28;20041;-75
2021/09/06 09:28:47;;;;;;;17.30;5.57;;;;;12.90;100848.00;;;;5047900;28;20053;-76
2021/09/06 09:31:19;;;;;;;11.93;5.10;;;;;12.80;100870.00;;;;5047728;28;20048;-76
2021/09/06 09:33:56;;;;;;;13.05;5.00;;;;;12.80;100863.00;;;;5048268;28;20052;-76
2021/09/06 09:36:33;;;;;;;11.98;5.68;;;;;12.90;100887.00;;;;5048227;28;20135;-75
2021/09/06 09:39:09;;;;;;;18.70;6.35;;;;;13.00;100885.00;;;;5048235;28;20094;-77
2021/09/06 09:41:41;;;;;;;214.20;11.57;;;;;13.00;100905.00;;;;5047462;28;20073;-75
2021/09/06 09:44:21;;;;;;;58.35;6.30;;;;;13.00;100901.00;;;;5047244;28;20045;-74
2021/09/06 09:46:56;;;;;;;79.13;6.32;;;;;12.90;100915.00;;;;5047554;28;20068;-76
2021/09/06 09:49:27;;;;;;;57.63;6.05;;;;;13.00;100910.00;;;;5047740;28;20045;-75
2021/09/06 09:51:56;;;;;;;133.30;6.65;;;;;13.10;100917.00;;;;5047445;28;20045;-76
2021/09/06 09:54:25;;;;;;;185.68;8.43;;;;;13.30;100918.00;;;;5047013;28;20055;-75
2021/09/06 09:56:54;;;;;;;171.95;8.95;;;;;13.40;100910.00;;;;5046176;28;20411;-76
2021/09/06 09:59:23;;;;;;;215.73;9.85;;;;;13.40;100917.00;;;;5047179;28;20455;-77
2021/09/06 10:02:18;;;;;;;64.72;5.90;;;;;13.50;100931.00;;;;5046828;28;20057;-77
2021/09/06 10:04:52;;;;;;;129.93;7.22;;;;;13.50;100922.00;;;;5041338;28;20045;-77
2021/09/06 10:07:26;;;;;;;88.43;7.70;;;;;13.50;100923.00;;;;5045123;28;20419;-76
2021/09/06 10:09:55;;;;;;;132.43;8.02;;;;;13.50;100919.00;;;;5047252;28;20053;-77
2021/09/06 10:12:27;;;;;;;76.22;7.55;;;;;13.50;100905.00;;;;5047229;28;20045;-79
2021/09/06 10:15:06;;;;;;;81.10;7.95;;;;;13.70;100900.00;;;;5046589;28;20071;-78
2021/09/06 10:17:48;;;;;;;22.50;9.00;;;;;14.00;100918.00;;;;5047099;28;20063;-76
2021/09/06 10:20:19;;;;;;;50.05;8.57;;;;;14.40;100904.00;;;;5046955;28;20055;-74
2021/09/06 10:23:05;;;;;;;68.25;7.78;;;;;14.50;100900.00;;;;5046303;28;20159;-77
2021/09/06 10:25:37;;;;;;;30.67;6.45;;;;;14.70;100894.00;;;;5046148;28;20048;-75
2021/09/06 10:28:08;;;;;;;54.33;5.55;;;;;15.10;100885.00;;;;5046486;28;20415;-75
2021/09/06 10:30:53;;;;;;;20.42;5.80;;;;;15.10;100910.00;;;;5046899;28;20045;-76
2021/09/06 10:33:31;;;;;;;10.05;5.10;;;;;15.20;100910.00;;;;5046722;28;20839;-75
2021/09/06 10:36:13;;;;;;;6.70;3.90;;;;;15.20;100903.00;;;;5046845;28;20103;-76
2021/09/06 10:38:50;;;;;;;5.95;3.83;;;;;15.20;100905.00;;;;5046794;28;20061;-77
2021/09/06 10:41:22;;;;;;;8.25;3.33;;;;;15.30;100908.00;;;;5046143;28;20052;-77
2021/09/06 10:43:59;;;;;;;7.30;4.03;;;;;15.30;100890.00;;;;5046777;28;21040;-77
2021/09/06 10:46:29;;;;;;;4.95;4.20;;;;;15.50;100888.00;;;;5046443;28;20049;-78
2021/09/06 10:49:03;;;;;;;5.90;4.38;;;;;15.40;100886.00;;;;5045441;28;20049;-77
2021/09/06 10:51:37;;;;;;;27.75;4.70;;;;;15.50;100888.00;;;;5046760;28;20049;-76
2021/09/06 10:54:10;;;;;;;6.18;3.53;;;;;15.50;100915.00;;;;5046577;28;20057;-76
2021/09/06 10:56:39;;;;;;;5.80;2.67;;;;;15.80;100875.00;;;;5046284;28;20075;-77
2021/09/06 10:59:07;;;;;;;10.52;2.65;;;;;15.80;100888.00;;;;5046048;28;20049;-77
2021/09/06 11:01:37;;;;;;;10.23;3.10;;;;;15.90;100870.00;;;;5046040;28;20110;-79
2021/09/06 11:04:07;;;;;;;3.75;2.63;;;;;16.10;100883.00;;;;5045277;28;20530;-78
2021/09/06 11:06:36;;;;;;;14.68;4.28;;;;;16.40;100878.00;;;;5046235;28;20049;-78
2021/09/06 11:09:05;;;;;;;4.15;1.98;;;;;16.60;100870.00;;;;5046379;28;20045;-77
2021/09/06 11:11:34;;;;;;;4.65;2.10;;;;;16.70;100876.00;;;;5045555;28;20044;-78
2021/09/06 11:14:03;;;;;;;8.48;2.17;;;;;17.00;100865.00;;;;5045901;28;20049;-77
2021/09/06 11:16:41;;;;;;;6.53;2.47;;;;;17.20;100867.00;;;;5046112;28;20110;-79
2021/09/06 11:19:15;;;;;;;2.65;1.42;;;;;17.60;100856.00;;;;5046346;28;20504;-77
2021/09/06 11:21:44;;;;;;;2.22;1.23;;;;;19.50;100804.00;;;;5045898;28;20413;-78
2021/09/06 11:24:13;;;;;;;1.73;1.10;;;;;23.00;100610.00;;;;5046718;28;20056;-77
2021/09/06 11:26:43;;;;;;;2.40;1.23;;;;;24.40;100613.00;;;;5050262;28;20083;-78
2021/09/06 11:29:12;;;;;;;2.78;1.27;;;;;24.90;100606.00;;;;5050176;28;20622;-78
2021/09/06 11:31:47;;;;;;;16.70;3.08;;;;;25.60;100604.00;;;;5050181;28;20055;-78
2021/09/06 11:34:22;;;;;;;4.32;1.63;;;;;26.00;100623.00;;;;5050002;28;20048;-76
2021/09/06 11:36:55;;;;;;;2.53;1.20;;;;;26.80;100663.00;;;;5050204;28;20049;-76
2021/09/06 11:39:30;;;;;;;1.20;1.10;;;;;27.60;100683.00;;;;5050057;28;20050;-76
2021/09/06 11:41:59;;;;;;;1.38;1.10;;;;;27.60;100680.00;;;;5049980;28;20068;-76
2021/09/06 11:44:29;;;;;;;2.50;1.20;;;;;27.50;100704.00;;;;5049634;28;20053;-76
2021/09/06 11:46:58;;;;;;;1.15;0.85;;;;;26.70;100695.00;;;;5049231;28;20053;-75
2021/09/06 11:49:27;;;;;;;2.53;1.30;;;;;26.90;100677.00;;;;5049777;28;20045;-76
2021/09/06 11:52:09;;;;;;;8.10;1.35;;;;;27.40;100672.00;;;;5050057;28;20049;-76
2021/09/06 11:54:45;;;;;;;3.20;1.40;;;;;26.70;100673.00;;;;5048961;28;20818;-75
2021/09/06 11:57:23;;;;;;;1.23;1.10;;;;;27.30;100669.00;;;;5048964;28;20053;-77
2021/09/06 11:59:56;;;;;;;3.88;1.23;;;;;26.90;100679.00;;;;5049467;28;20063;-77
2021/09/06 12:02:26;;;;;;;4.70;1.10;;;;;27.40;100699.00;;;;5049244;28;20064;-76
2021/09/06 12:05:15;;;;;;;1.13;1.03;;;;;27.30;100728.00;;;;5049494;28;20064;-77
2021/09/06 12:07:52;;;;;;;7.82;2.38;;;;;26.80;100736.00;;;;5049732;28;20049;-77
2021/09/06 12:10:33;;;;;;;3.60;1.10;;;;;27.00;100753.00;;;;5049058;28;20049;-78
2021/09/06 12:13:06;;;;;;;1.92;1.52;;;;;25.40;100761.00;;;;5049380;28;20055;-79
2021/09/06 12:15:57;;;;;;;1.63;1.42;;;;;26.30;100749.00;;;;5049338;28;20584;-77
2021/09/06 12:18:39;;;;;;;2.60;1.40;;;;;23.40;100922.00;;;;5048821;28;20089;-80
2021/09/06 12:21:17;;;;;;;2.83;1.10;;;;;21.30;100809.00;;;;5048837;28;20049;-77